sensor_id;sensor_type;location;lat;lon;timestamp;pressure;altitude;pressure_sealevel;temperature;humidity
18504;BME280;9381;54.244;10.074;2023-03-14T00:04:04;98108.69;;;11.65;88.35
18504;BME280;9381;54.244;10.074;2023-03-14T00:09:04;98120.94;;;11.58;88.74
18504;BME280;9381;54.244;10.074;2023-03-14T00:14:04;98120.78;;;11.72;88.22
18504;BME280;9381;54.244;10.074;2023-03-14T00:19:05;98125.34;;;11.49;89.55
18504;BME280;9381;54.244;10.074;2023-03-14T00:24:06;98117.69;;;11.56;89.49
18504;BME280;9381;54.244;10.074;2023-03-14T00:29:06;98129.66;;;11.50;89.89
18504;BME280;9381;54.244;10.074;2023-03-14T00:34:06;98116.06;;;11.54;89.48
18504;BME280;9381;54.244;10.074;2023-03-14T00:39:07;98107.41;;;11.58;89.52
18504;BME280;9381;54.244;10.074;2023-03-14T00:44:07;98091.31;;;11.71;88.26
18504;BME280;9381;54.244;10.074;2023-03-14T00:49:07;98091.19;;;11.58;88.54
18504;BME280;9381;54.244;10.074;2023-03-14T00:54:09;98088.09;;;11.69;88.44
18504;BME280;9381;54.244;10.074;2023-03-14T00:59:09;98077.56;;;11.63;88.05
18504;BME280;9381;54.244;10.074;2023-03-14T01:04:10;98068.91;;;11.66;88.05
18504;BME280;9381;54.244;10.074;2023-03-14T01:09:10;98069.53;;;11.81;87.34
18504;BME280;9381;54.244;10.074;2023-03-14T01:14:10;98057.38;;;11.78;87.04
18504;BME280;9381;54.244;10.074;2023-03-14T01:19:11;98055.97;;;11.58;87.90
18504;BME280;9381;54.244;10.074;2023-03-14T01:24:11;98060.91;;;11.79;87.43
18504;BME280;9381;54.244;10.074;2023-03-14T01:29:12;98062.00;;;11.50;88.73
18504;BME280;9381;54.244;10.074;2023-03-14T01:34:12;98066.75;;;11.63;88.44
18504;BME280;9381;54.244;10.074;2023-03-14T01:39:12;98075.34;;;11.69;88.33
18504;BME280;9381;54.244;10.074;2023-03-14T01:44:13;98071.03;;;11.68;88.21
18504;BME280;9381;54.244;10.074;2023-03-14T01:49:26;98078.88;;;11.70;88.51
18504;BME280;9381;54.244;10.074;2023-03-14T01:54:32;98065.03;;;11.71;88.77
18504;BME280;9381;54.244;10.074;2023-03-14T01:59:34;98051.44;;;11.76;88.67
18504;BME280;9381;54.244;10.074;2023-03-14T02:04:36;98052.03;;;11.73;88.29
18504;BME280;9381;54.244;10.074;2023-03-14T02:09:39;98034.06;;;11.82;88.45
18504;BME280;9381;54.244;10.074;2023-03-14T02:14:40;98022.75;;;11.75;88.63
18504;BME280;9381;54.244;10.074;2023-03-14T02:19:55;98014.69;;;11.70;88.34
18504;BME280;9381;54.244;10.074;2023-03-14T02:30:19;98016.00;;;11.73;88.69
18504;BME280;9381;54.244;10.074;2023-03-14T02:35:22;98001.66;;;11.72;89.00
18504;BME280;9381;54.244;10.074;2023-03-14T02:40:23;97989.09;;;11.81;89.07
18504;BME280;9381;54.244;10.074;2023-03-14T02:50:26;97983.28;;;11.69;90.20
18504;BME280;9381;54.244;10.074;2023-03-14T02:55:29;97966.53;;;11.68;91.23
18504;BME280;9381;54.244;10.074;2023-03-14T03:00:29;97962.28;;;11.62;91.93
18504;BME280;9381;54.244;10.074;2023-03-14T03:05:30;97964.22;;;11.79;91.69
18504;BME280;9381;54.244;10.074;2023-03-14T03:10:31;97963.31;;;11.66;92.54
18504;BME280;9381;54.244;10.074;2023-03-14T03:15:32;97957.44;;;11.59;93.18
18504;BME280;9381;54.244;10.074;2023-03-14T03:20:32;97971.22;;;11.80;93.16
18504;BME280;9381;54.244;10.074;2023-03-14T03:25:32;97962.69;;;11.92;93.11
18504;BME280;9381;54.244;10.074;2023-03-14T03:30:39;97954.84;;;11.90;93.13
18504;BME280;9381;54.244;10.074;2023-03-14T03:35:48;97963.44;;;11.97;93.50
18504;BME280;9381;54.244;10.074;2023-03-14T03:40:49;97954.28;;;11.93;94.83
18504;BME280;9381;54.244;10.074;2023-03-14T03:45:49;97953.63;;;12.01;95.40
18504;BME280;9381;54.244;10.074;2023-03-14T03:50:50;97949.16;;;12.10;99.47
18504;BME280;9381;54.244;10.074;2023-03-14T03:55:50;97952.09;;;11.95;100.00
18504;BME280;9381;54.244;10.074;2023-03-14T04:00:50;97950.63;;;11.84;100.00
18504;BME280;9381;54.244;10.074;2023-03-14T04:06:08;97960.84;;;11.87;100.00
18504;BME280;9381;54.244;10.074;2023-03-14T04:11:09;97946.63;;;11.59;100.00
18504;BME280;9381;54.244;10.074;2023-03-14T04:16:28;97940.25;;;11.45;100.00
18504;BME280;9381;54.244;10.074;2023-03-14T04:21:31;97951.75;;;11.37;100.00
18504;BME280;9381;54.244;10.074;2023-03-14T04:26:31;97964.72;;;11.35;100.00
18504;BME280;9381;54.244;10.074;2023-03-14T04:31:31;97951.66;;;11.42;100.00
18504;BME280;9381;54.244;10.074;2023-03-14T04:36:32;97932.59;;;11.28;100.00
18504;BME280;9381;54.244;10.074;2023-03-14T04:41:32;97939.81;;;11.38;100.00
18504;BME280;9381;54.244;10.074;2023-03-14T04:46:32;97943.16;;;11.06;100.00
18504;BME280;9381;54.244;10.074;2023-03-14T04:51:33;97942.31;;;11.06;100.00
18504;BME280;9381;54.244;10.074;2023-03-14T04:56:33;97922.41;;;10.97;100.00
18504;BME280;9381;54.244;10.074;2023-03-14T05:01:34;97926.72;;;10.98;100.00
18504;BME280;9381;54.244;10.074;2023-03-14T05:06:34;97920.91;;;10.86;100.00
18504;BME280;9381;54.244;10.074;2023-03-14T05:11:35;97923.66;;;10.81;100.00
18504;BME280;9381;54.244;10.074;2023-03-14T05:16:35;97907.44;;;10.81;100.00
18504;BME280;9381;54.244;10.074;2023-03-14T05:21:35;97903.19;;;10.75;100.00
18504;BME280;9381;54.244;10.074;2023-03-14T05:26:35;97903.69;;;10.77;100.00
18504;BME280;9381;54.244;10.074;2023-03-14T05:31:36;97894.34;;;10.36;100.00
18504;BME280;9381;54.244;10.074;2023-03-14T05:36:36;97886.00;;;10.61;100.00
18504;BME280;9381;54.244;10.074;2023-03-14T05:41:36;97876.91;;;10.23;100.00
18504;BME280;9381;54.244;10.074;2023-03-14T05:46:38;97875.41;;;10.41;100.00
18504;BME280;9381;54.244;10.074;2023-03-14T05:51:38;97883.59;;;10.31;100.00
18504;BME280;9381;54.244;10.074;2023-03-14T05:56:39;97882.72;;;10.02;100.00
18504;BME280;9381;54.244;10.074;2023-03-14T06:01:39;97889.22;;;9.96;100.00
18504;BME280;9381;54.244;10.074;2023-03-14T06:06:39;97894.34;;;10.02;100.00
18504;BME280;9381;54.244;10.074;2023-03-14T06:11:39;97882.69;;;10.07;100.00
18504;BME280;9381;54.244;10.074;2023-03-14T06:16:40;97887.03;;;9.98;100.00
18504;BME280;9381;54.244;10.074;2023-03-14T06:21:40;97891.84;;;10.11;100.00
18504;BME280;9381;54.244;10.074;2023-03-14T06:26:40;97874.31;;;10.42;100.00
18504;BME280;9381;54.244;10.074;2023-03-14T06:31:41;97883.47;;;10.46;100.00
18504;BME280;9381;54.244;10.074;2023-03-14T06:36:41;97869.91;;;10.51;100.00
18504;BME280;9381;54.244;10.074;2023-03-14T06:41:41;97863.09;;;10.82;100.00
18504;BME280;9381;54.244;10.074;2023-03-14T06:46:42;97868.91;;;10.94;100.00
18504;BME280;9381;54.244;10.074;2023-03-14T06:51:42;97869.81;;;11.08;100.00
18504;BME280;9381;54.244;10.074;2023-03-14T06:56:42;97881.38;;;10.90;100.00
18504;BME280;9381;54.244;10.074;2023-03-14T07:01:42;97902.09;;;10.99;100.00
18504;BME280;9381;54.244;10.074;2023-03-14T07:06:43;97897.84;;;10.93;100.00
18504;BME280;9381;54.244;10.074;2023-03-14T07:11:44;97896.13;;;11.02;100.00
18504;BME280;9381;54.244;10.074;2023-03-14T07:16:45;97907.00;;;10.97;100.00
18504;BME280;9381;54.244;10.074;2023-03-14T07:21:45;97902.47;;;10.93;100.00
18504;BME280;9381;54.244;10.074;2023-03-14T07:26:45;97909.06;;;10.82;100.00
18504;BME280;9381;54.244;10.074;2023-03-14T07:31:46;97917.63;;;10.89;100.00
18504;BME280;9381;54.244;10.074;2023-03-14T07:36:46;97920.03;;;11.19;100.00
18504;BME280;9381;54.244;10.074;2023-03-14T07:41:46;97917.09;;;11.15;100.00
18504;BME280;9381;54.244;10.074;2023-03-14T07:46:47;97924.50;;;11.05;100.00
18504;BME280;9381;54.244;10.074;2023-03-14T07:51:48;97928.88;;;11.01;100.00
18504;BME280;9381;54.244;10.074;2023-03-14T07:56:48;97920.22;;;11.22;100.00
18504;BME280;9381;54.244;10.074;2023-03-14T08:01:48;97924.50;;;11.05;100.00
18504;BME280;9381;54.244;10.074;2023-03-14T08:06:48;97938.50;;;11.12;100.00
18504;BME280;9381;54.244;10.074;2023-03-14T08:11:49;97932.09;;;11.26;100.00
18504;BME280;9381;54.244;10.074;2023-03-14T08:16:50;97929.19;;;11.18;100.00
18504;BME280;9381;54.244;10.074;2023-03-14T08:21:51;97941.31;;;11.02;100.00
18504;BME280;9381;54.244;10.074;2023-03-14T08:26:51;97942.78;;;10.89;100.00
18504;BME280;9381;54.244;10.074;2023-03-14T08:31:51;97953.16;;;11.06;100.00
18504;BME280;9381;54.244;10.074;2023-03-14T08:36:51;97951.06;;;10.98;100.00
18504;BME280;9381;54.244;10.074;2023-03-14T08:41:52;97948.31;;;11.03;100.00
18504;BME280;9381;54.244;10.074;2023-03-14T08:46:52;97962.88;;;10.78;100.00
18504;BME280;9381;54.244;10.074;2023-03-14T08:51:53;97984.53;;;10.78;100.00
18504;BME280;9381;54.244;10.074;2023-03-14T08:56:53;97980.38;;;10.86;100.00
18504;BME280;9381;54.244;10.074;2023-03-14T09:01:53;98039.19;;;10.99;100.00
18504;BME280;9381;54.244;10.074;2023-03-14T09:06:54;98074.72;;;10.49;100.00
18504;BME280;9381;54.244;10.074;2023-03-14T09:11:55;98101.41;;;10.07;100.00
18504;BME280;9381;54.244;10.074;2023-03-14T09:16:56;98117.75;;;9.47;100.00
18504;BME280;9381;54.244;10.074;2023-03-14T09:21:56;98132.88;;;9.23;100.00
18504;BME280;9381;54.244;10.074;2023-03-14T09:26:58;98157.94;;;8.98;100.00
18504;BME280;9381;54.244;10.074;2023-03-14T09:31:58;98187.25;;;8.70;100.00
18504;BME280;9381;54.244;10.074;2023-03-14T09:36:59;98229.19;;;8.00;100.00
18504;BME280;9381;54.244;10.074;2023-03-14T09:42:02;98263.91;;;7.65;100.00
18504;BME280;9381;54.244;10.074;2023-03-14T09:47:07;98288.78;;;6.97;100.00
18504;BME280;9381;54.244;10.074;2023-03-14T09:57:15;98312.94;;;6.92;100.00
18504;BME280;9381;54.244;10.074;2023-03-14T10:02:25;98324.44;;;7.09;100.00
18504;BME280;9381;54.244;10.074;2023-03-14T10:07:30;98340.47;;;7.04;100.00
18504;BME280;9381;54.244;10.074;2023-03-14T10:12:36;98359.41;;;7.14;100.00
18504;BME280;9381;54.244;10.074;2023-03-14T10:17:47;98373.59;;;7.10;100.00
18504;BME280;9381;54.244;10.074;2023-03-14T10:22:50;98390.16;;;7.23;100.00
18504;BME280;9381;54.244;10.074;2023-03-14T10:27:51;98416.16;;;7.39;100.00
18504;BME280;9381;54.244;10.074;2023-03-14T10:32:51;98409.69;;;7.62;100.00
18504;BME280;9381;54.244;10.074;2023-03-14T10:38:00;98442.66;;;7.52;100.00
18504;BME280;9381;54.244;10.074;2023-03-14T10:43:04;98456.56;;;7.44;100.00
18504;BME280;9381;54.244;10.074;2023-03-14T10:53:17;98469.38;;;7.85;100.00
18504;BME280;9381;54.244;10.074;2023-03-14T10:58:28;98482.38;;;7.93;99.24
18504;BME280;9381;54.244;10.074;2023-03-14T11:03:31;98487.38;;;8.33;98.44
18504;BME280;9381;54.244;10.074;2023-03-14T11:19:20;98531.53;;;8.32;95.87
18504;BME280;9381;54.244;10.074;2023-03-14T11:24:49;98537.06;;;8.47;95.82
18504;BME280;9381;54.244;10.074;2023-03-14T11:30:15;98553.59;;;8.86;92.51
18504;BME280;9381;54.244;10.074;2023-03-14T11:35:29;98572.91;;;8.78;91.00
18504;BME280;9381;54.244;10.074;2023-03-14T11:40:31;98585.31;;;8.79;91.81
18504;BME280;9381;54.244;10.074;2023-03-14T11:45:38;98603.94;;;8.81;90.58
18504;BME280;9381;54.244;10.074;2023-03-14T11:50:42;98609.59;;;8.84;90.44
18504;BME280;9381;54.244;10.074;2023-03-14T11:55:44;98610.34;;;8.75;89.02
18504;BME280;9381;54.244;10.074;2023-03-14T12:00:47;98625.56;;;8.60;89.75
18504;BME280;9381;54.244;10.074;2023-03-14T12:11:04;98646.94;;;8.71;88.59
18504;BME280;9381;54.244;10.074;2023-03-14T12:16:38;98647.16;;;8.64;87.83
18504;BME280;9381;54.244;10.074;2023-03-14T12:21:52;98645.31;;;8.70;87.99
18504;BME280;9381;54.244;10.074;2023-03-14T12:26:56;98648.22;;;8.90;89.10
18504;BME280;9381;54.244;10.074;2023-03-14T12:32:09;98665.94;;;9.12;86.99
18504;BME280;9381;54.244;10.074;2023-03-14T12:42:38;98687.63;;;8.96;84.80
18504;BME280;9381;54.244;10.074;2023-03-14T12:53:39;98703.16;;;8.84;80.25
18504;BME280;9381;54.244;10.074;2023-03-14T12:58:50;98717.00;;;8.71;78.34
18504;BME280;9381;54.244;10.074;2023-03-14T13:03:57;98733.78;;;8.78;77.11
18504;BME280;9381;54.244;10.074;2023-03-14T13:14:30;98774.84;;;8.63;76.07
18504;BME280;9381;54.244;10.074;2023-03-14T13:19:31;98786.94;;;8.61;76.12
18504;BME280;9381;54.244;10.074;2023-03-14T13:24:34;98804.25;;;8.65;74.49
18504;BME280;9381;54.244;10.074;2023-03-14T13:29:35;98821.41;;;8.59;72.10
18504;BME280;9381;54.244;10.074;2023-03-14T13:34:36;98825.00;;;8.64;71.02
18504;BME280;9381;54.244;10.074;2023-03-14T13:39:39;98837.97;;;8.46;64.90
18504;BME280;9381;54.244;10.074;2023-03-14T13:44:40;98843.53;;;8.61;67.73
18504;BME280;9381;54.244;10.074;2023-03-14T13:49:41;98863.31;;;8.50;63.14
18504;BME280;9381;54.244;10.074;2023-03-14T13:54:42;98886.44;;;8.46;64.56
18504;BME280;9381;54.244;10.074;2023-03-14T13:59:42;98889.34;;;8.12;64.10
18504;BME280;9381;54.244;10.074;2023-03-14T14:04:42;98924.31;;;8.23;66.78
18504;BME280;9381;54.244;10.074;2023-03-14T14:09:46;98927.47;;;8.04;64.72
18504;BME280;9381;54.244;10.074;2023-03-14T14:14:52;98936.06;;;8.17;67.00
18504;BME280;9381;54.244;10.074;2023-03-14T14:19:54;98943.53;;;8.15;65.18
18504;BME280;9381;54.244;10.074;2023-03-14T14:24:56;98960.38;;;8.22;65.47
18504;BME280;9381;54.244;10.074;2023-03-14T14:30:02;98969.19;;;8.34;63.92
18504;BME280;9381;54.244;10.074;2023-03-14T14:35:03;98974.41;;;8.73;65.51
18504;BME280;9381;54.244;10.074;2023-03-14T14:40:25;98998.84;;;8.51;65.80
18504;BME280;9381;54.244;10.074;2023-03-14T14:45:27;99014.41;;;8.32;65.35
18504;BME280;9381;54.244;10.074;2023-03-14T14:50:44;99029.78;;;8.32;66.77
18504;BME280;9381;54.244;10.074;2023-03-14T14:55:51;99030.91;;;8.19;67.49
18504;BME280;9381;54.244;10.074;2023-03-14T15:01:19;99052.50;;;7.96;67.71
18504;BME280;9381;54.244;10.074;2023-03-14T15:06:28;99051.81;;;7.89;67.66
18504;BME280;9381;54.244;10.074;2023-03-14T15:11:29;99065.38;;;7.94;68.42
18504;BME280;9381;54.244;10.074;2023-03-14T15:16:31;99057.34;;;7.83;67.82
18504;BME280;9381;54.244;10.074;2023-03-14T15:21:32;99070.25;;;7.69;67.50
18504;BME280;9381;54.244;10.074;2023-03-14T15:26:33;99085.34;;;7.70;63.94
18504;BME280;9381;54.244;10.074;2023-03-14T15:31:34;99105.91;;;7.76;62.75
18504;BME280;9381;54.244;10.074;2023-03-14T15:36:37;99108.25;;;7.84;64.94
18504;BME280;9381;54.244;10.074;2023-03-14T15:41:37;99122.06;;;7.76;64.52
18504;BME280;9381;54.244;10.074;2023-03-14T15:46:37;99135.66;;;7.58;65.05
18504;BME280;9381;54.244;10.074;2023-03-14T15:51:38;99147.84;;;7.49;66.90
18504;BME280;9381;54.244;10.074;2023-03-14T15:56:38;99154.75;;;7.45;67.72
18504;BME280;9381;54.244;10.074;2023-03-14T16:01:38;99173.00;;;7.32;68.94
18504;BME280;9381;54.244;10.074;2023-03-14T16:06:39;99172.59;;;7.05;67.02
18504;BME280;9381;54.244;10.074;2023-03-14T16:11:39;99199.72;;;7.15;67.32
18504;BME280;9381;54.244;10.074;2023-03-14T16:16:40;99199.94;;;7.02;66.54
18504;BME280;9381;54.244;10.074;2023-03-14T16:21:40;99218.75;;;7.02;67.41
18504;BME280;9381;54.244;10.074;2023-03-14T16:26:42;99237.59;;;7.14;68.00
18504;BME280;9381;54.244;10.074;2023-03-14T16:31:44;99263.06;;;7.11;68.00
18504;BME280;9381;54.244;10.074;2023-03-14T16:36:44;99258.22;;;6.90;68.25
18504;BME280;9381;54.244;10.074;2023-03-14T16:41:45;99281.41;;;6.73;67.73
18504;BME280;9381;54.244;10.074;2023-03-14T16:46:45;99286.03;;;6.66;69.39
18504;BME280;9381;54.244;10.074;2023-03-14T16:51:46;99298.56;;;6.72;71.17
18504;BME280;9381;54.244;10.074;2023-03-14T16:56:46;99307.06;;;6.51;72.87
18504;BME280;9381;54.244;10.074;2023-03-14T17:01:48;99314.69;;;6.72;71.90
18504;BME280;9381;54.244;10.074;2023-03-14T17:06:49;99329.78;;;6.37;70.63
18504;BME280;9381;54.244;10.074;2023-03-14T17:11:50;99341.09;;;6.39;72.55
18504;BME280;9381;54.244;10.074;2023-03-14T17:16:51;99347.22;;;6.46;72.94
18504;BME280;9381;54.244;10.074;2023-03-14T17:21:51;99362.84;;;6.13;71.42
18504;BME280;9381;54.244;10.074;2023-03-14T17:26:52;99359.31;;;6.37;72.05
18504;BME280;9381;54.244;10.074;2023-03-14T17:31:52;99382.63;;;5.94;70.08
18504;BME280;9381;54.244;10.074;2023-03-14T17:36:52;99401.16;;;6.02;71.01
18504;BME280;9381;54.244;10.074;2023-03-14T17:41:53;99410.50;;;5.93;71.11
18504;BME280;9381;54.244;10.074;2023-03-14T17:46:53;99433.88;;;5.86;71.75
18504;BME280;9381;54.244;10.074;2023-03-14T17:51:55;99437.22;;;5.82;73.51
18504;BME280;9381;54.244;10.074;2023-03-14T17:56:55;99442.09;;;5.91;73.36
18504;BME280;9381;54.244;10.074;2023-03-14T18:01:55;99486.25;;;5.95;75.46
18504;BME280;9381;54.244;10.074;2023-03-14T18:06:55;99465.03;;;5.87;75.94
18504;BME280;9381;54.244;10.074;2023-03-14T18:11:56;99486.75;;;5.79;76.79
18504;BME280;9381;54.244;10.074;2023-03-14T18:16:56;99488.06;;;5.64;76.91
18504;BME280;9381;54.244;10.074;2023-03-14T18:21:57;99501.72;;;5.56;77.55
18504;BME280;9381;54.244;10.074;2023-03-14T18:26:57;99527.00;;;5.36;77.30
18504;BME280;9381;54.244;10.074;2023-03-14T18:31:57;99528.53;;;5.63;77.54
18504;BME280;9381;54.244;10.074;2023-03-14T18:36:58;99536.09;;;5.22;79.88
18504;BME280;9381;54.244;10.074;2023-03-14T18:41:58;99548.69;;;5.21;81.02
18504;BME280;9381;54.244;10.074;2023-03-14T18:46:59;99565.41;;;5.17;82.06
18504;BME280;9381;54.244;10.074;2023-03-14T18:51:59;99567.06;;;5.11;83.33
18504;BME280;9381;54.244;10.074;2023-03-14T18:57:00;99569.56;;;4.93;84.24
18504;BME280;9381;54.244;10.074;2023-03-14T19:02:00;99582.13;;;4.93;83.90
18504;BME280;9381;54.244;10.074;2023-03-14T19:07:01;99588.50;;;5.05;83.56
18504;BME280;9381;54.244;10.074;2023-03-14T19:12:02;99588.94;;;4.82;84.89
18504;BME280;9381;54.244;10.074;2023-03-14T19:17:03;99613.66;;;4.91;84.29
18504;BME280;9381;54.244;10.074;2023-03-14T19:22:03;99613.25;;;4.81;85.51
18504;BME280;9381;54.244;10.074;2023-03-14T19:27:04;99626.88;;;4.66;85.35
18504;BME280;9381;54.244;10.074;2023-03-14T19:32:04;99632.41;;;4.78;85.77
18504;BME280;9381;54.244;10.074;2023-03-14T19:37:04;99645.00;;;4.77;86.41
18504;BME280;9381;54.244;10.074;2023-03-14T19:42:04;99646.84;;;4.64;86.14
18504;BME280;9381;54.244;10.074;2023-03-14T19:47:05;99662.06;;;4.44;86.08
18504;BME280;9381;54.244;10.074;2023-03-14T19:52:05;99676.00;;;4.26;87.11
18504;BME280;9381;54.244;10.074;2023-03-14T19:57:05;99689.00;;;4.36;86.59
18504;BME280;9381;54.244;10.074;2023-03-14T20:02:05;99702.66;;;4.00;88.31
18504;BME280;9381;54.244;10.074;2023-03-14T20:07:06;99709.53;;;4.16;88.13
18504;BME280;9381;54.244;10.074;2023-03-14T20:12:07;99730.84;;;3.96;88.60
18504;BME280;9381;54.244;10.074;2023-03-14T20:17:08;99725.53;;;4.09;88.66
18504;BME280;9381;54.244;10.074;2023-03-14T20:22:08;99717.13;;;4.12;88.76
18504;BME280;9381;54.244;10.074;2023-03-14T20:27:09;99730.88;;;4.03;88.78
18504;BME280;9381;54.244;10.074;2023-03-14T20:32:09;99737.72;;;4.18;89.06
18504;BME280;9381;54.244;10.074;2023-03-14T20:37:09;99743.22;;;4.10;88.40
18504;BME280;9381;54.244;10.074;2023-03-14T20:42:12;99750.91;;;4.20;87.70
18504;BME280;9381;54.244;10.074;2023-03-14T20:47:13;99758.94;;;4.20;88.10
18504;BME280;9381;54.244;10.074;2023-03-14T20:52:13;99781.13;;;4.14;87.50
18504;BME280;9381;54.244;10.074;2023-03-14T20:57:14;99783.03;;;3.86;88.46
18504;BME280;9381;54.244;10.074;2023-03-14T21:02:15;99784.38;;;4.03;87.84
18504;BME280;9381;54.244;10.074;2023-03-14T21:07:16;99801.84;;;3.99;88.16
18504;BME280;9381;54.244;10.074;2023-03-14T21:12:16;99806.06;;;4.14;87.62
18504;BME280;9381;54.244;10.074;2023-03-14T21:17:17;99806.53;;;3.97;88.53
18504;BME280;9381;54.244;10.074;2023-03-14T21:22:17;99812.31;;;3.94;88.72
18504;BME280;9381;54.244;10.074;2023-03-14T21:27:18;99823.63;;;3.96;88.70
18504;BME280;9381;54.244;10.074;2023-03-14T21:32:18;99838.78;;;4.16;88.27
18504;BME280;9381;54.244;10.074;2023-03-14T21:37:19;99855.97;;;4.01;88.84
18504;BME280;9381;54.244;10.074;2023-03-14T21:42:22;99856.13;;;3.93;89.21
18504;BME280;9381;54.244;10.074;2023-03-14T21:47:22;99863.91;;;3.88;89.63
18504;BME280;9381;54.244;10.074;2023-03-14T21:52:24;99873.69;;;4.02;88.55
18504;BME280;9381;54.244;10.074;2023-03-14T21:57:25;99884.25;;;4.10;89.66
18504;BME280;9381;54.244;10.074;2023-03-14T22:02:28;99886.50;;;4.13;89.29
18504;BME280;9381;54.244;10.074;2023-03-14T22:07:29;99893.25;;;4.36;90.05
18504;BME280;9381;54.244;10.074;2023-03-14T22:12:29;99897.06;;;4.48;89.53
18504;BME280;9381;54.244;10.074;2023-03-14T22:17:30;99906.72;;;4.15;90.35
18504;BME280;9381;54.244;10.074;2023-03-14T22:22:30;99906.94;;;3.93;94.67
18504;BME280;9381;54.244;10.074;2023-03-14T22:27:31;99913.84;;;4.08;93.33
18504;BME280;9381;54.244;10.074;2023-03-14T22:32:31;99916.50;;;4.02;93.86
18504;BME280;9381;54.244;10.074;2023-03-14T22:37:31;99926.97;;;3.76;93.95
18504;BME280;9381;54.244;10.074;2023-03-14T22:42:32;99931.94;;;3.79;93.80
18504;BME280;9381;54.244;10.074;2023-03-14T22:47:32;99936.66;;;3.56;94.42
18504;BME280;9381;54.244;10.074;2023-03-14T22:52:33;99944.44;;;3.72;95.30
18504;BME280;9381;54.244;10.074;2023-03-14T22:57:33;99947.75;;;3.53;96.46
18504;BME280;9381;54.244;10.074;2023-03-14T23:02:33;99955.09;;;3.51;97.91
18504;BME280;9381;54.244;10.074;2023-03-14T23:07:34;99964.53;;;3.47;97.48
18504;BME280;9381;54.244;10.074;2023-03-14T23:12:34;99967.25;;;3.32;98.90
18504;BME280;9381;54.244;10.074;2023-03-14T23:17:34;99974.53;;;3.24;99.73
18504;BME280;9381;54.244;10.074;2023-03-14T23:22:35;99983.16;;;3.19;100.00
18504;BME280;9381;54.244;10.074;2023-03-14T23:27:35;99970.50;;;3.28;100.00
18504;BME280;9381;54.244;10.074;2023-03-14T23:32:36;99974.19;;;3.27;100.00
18504;BME280;9381;54.244;10.074;2023-03-14T23:37:36;99985.81;;;3.19;100.00
18504;BME280;9381;54.244;10.074;2023-03-14T23:42:36;99991.63;;;3.08;100.00
18504;BME280;9381;54.244;10.074;2023-03-14T23:47:37;100003.25;;;3.01;100.00
18504;BME280;9381;54.244;10.074;2023-03-14T23:52:38;100010.13;;;3.10;100.00
18504;BME280;9381;54.244;10.074;2023-03-14T23:57:38;100022.41;;;3.04;100.00
